Time;durP1;ratioP1;P1;durP2;ratioP2;P2;SDS_P1;SDS_P2;PMS_P1;PMS_P2;Temp;Humidity;BMP_temperature;BMP_pressure;BME280_temperature;BME280_humidity;BME280_pressure;Samples;Min_cycle;Max_cycle;Signal;HPM_P1;HPM_P2
2022/08/01 00:00:32;;;;;;;6.40;5.70;;;20.40;84.10;;;;;;5099911;28;20035;-78
2022/08/01 00:02:58;;;;;;;9.10;6.72;;;20.40;84.20;;;;;;5081193;28;20028;-78
2022/08/01 00:05:23;;;;;;;8.05;5.40;;;20.40;84.30;;;;;;5100764;28;20024;-77
2022/08/01 00:07:49;;;;;;;6.32;5.70;;;20.40;84.30;;;;;;5100318;28;20340;-78
2022/08/01 00:10:16;;;;;;;7.40;6.10;;;20.40;84.20;;;;;;5101081;28;20039;-77
2022/08/01 00:12:44;;;;;;;7.95;6.13;;;20.40;84.30;;;;;;5098490;28;20024;-77
2022/08/01 00:15:11;;;;;;;5.90;5.22;;;20.40;84.20;;;;;;5082229;28;20024;-78
2022/08/01 00:17:37;;;;;;;6.93;5.95;;;20.40;84.30;;;;;;5099236;28;20028;-77
2022/08/01 00:20:05;;;;;;;7.10;5.65;;;20.40;84.20;;;;;;5095808;28;20040;-77
2022/08/01 00:22:32;;;;;;;6.55;5.65;;;20.40;84.30;;;;;;5098630;28;20313;-77
2022/08/01 00:24:57;;;;;;;7.55;5.80;;;20.40;84.20;;;;;;5082302;28;20055;-78
2022/08/01 00:27:23;;;;;;;7.55;5.63;;;20.40;84.30;;;;;;5100176;28;20357;-78
2022/08/01 00:29:49;;;;;;;6.22;5.63;;;20.40;84.20;;;;;;5082101;28;20073;-78
2022/08/01 00:32:14;;;;;;;6.97;5.97;;;20.40;84.20;;;;;;5081752;28;20089;-78
2022/08/01 00:34:40;;;;;;;6.25;5.47;;;20.40;84.10;;;;;;5099693;28;20043;-77
2022/08/01 00:37:05;;;;;;;7.07;6.00;;;20.40;84.10;;;;;;5099509;28;20510;-77
2022/08/01 00:39:32;;;;;;;6.50;5.55;;;20.40;84.10;;;;;;5080694;28;20028;-77
2022/08/01 00:41:58;;;;;;;6.63;5.80;;;20.30;84.00;;;;;;5100204;28;20031;-77
2022/08/01 00:44:24;;;;;;;6.22;5.32;;;20.30;84.10;;;;;;5081790;28;20339;-77
2022/08/01 00:46:50;;;;;;;7.05;6.22;;;20.30;84.10;;;;;;5081371;28;20078;-77
2022/08/01 00:49:16;;;;;;;8.15;5.97;;;20.30;84.10;;;;;;5099010;28;20040;-77
2022/08/01 00:51:41;;;;;;;7.88;6.25;;;20.20;84.10;;;;;;5094988;28;20515;-78
2022/08/01 00:54:07;;;;;;;7.22;5.95;;;20.30;84.20;;;;;;5075438;28;20122;-78
2022/08/01 00:56:33;;;;;;;7.53;6.03;;;20.30;84.20;;;;;;5075422;28;20028;-78
2022/08/01 00:58:59;;;;;;;7.07;5.70;;;20.30;84.10;;;;;;5093014;28;20133;-78
2022/08/01 01:01:24;;;;;;;7.50;6.70;;;20.30;84.10;;;;;;5075034;28;20020;-75
2022/08/01 01:03:52;;;;;;;8.70;7.28;;;20.30;84.10;;;;;;5092504;28;20024;-75
2022/08/01 01:06:30;;;;;;;9.52;7.53;;;20.30;84.10;;;;;;5074279;28;20032;-75
2022/08/01 01:09:37;;;;;;;7.55;6.57;;;20.30;84.20;;;;;;5091253;28;20487;-75
2022/08/01 01:12:14;;;;;;;7.15;6.45;;;20.30;84.10;;;;;;5092021;28;20044;-75
2022/08/01 01:14:54;;;;;;;7.70;6.28;;;20.30;84.00;;;;;;5092380;28;20105;-75
2022/08/01 01:17:28;;;;;;;7.43;6.63;;;20.20;84.00;;;;;;5091134;28;20028;-75
2022/08/01 01:19:57;;;;;;;8.60;6.85;;;20.20;84.00;;;;;;5074256;28;20398;-75
2022/08/01 01:22:25;;;;;;;7.82;6.65;;;20.20;84.10;;;;;;5074279;28;20032;-75
2022/08/01 01:25:02;;;;;;;8.02;6.80;;;20.20;84.00;;;;;;5074143;28;20040;-75
2022/08/01 01:27:44;;;;;;;7.53;6.18;;;20.20;84.00;;;;;;5074043;28;20040;-75
2022/08/01 01:30:10;;;;;;;9.43;6.45;;;20.20;84.00;;;;;;5092209;28;20032;-75
2022/08/01 01:32:39;;;;;;;8.40;6.60;;;20.20;83.90;;;;;;5093030;28;20418;-74
2022/08/01 01:35:15;;;;;;;6.45;5.55;;;20.20;84.00;;;;;;5098619;28;20047;-75
2022/08/01 01:37:45;;;;;;;7.30;6.13;;;20.20;84.00;;;;;;5099078;28;20472;-75
2022/08/01 01:40:12;;;;;;;6.85;5.78;;;20.20;83.90;;;;;;5098987;28;20044;-74
2022/08/01 01:42:39;;;;;;;8.48;5.93;;;20.20;83.90;;;;;;5080633;28;20028;-75
2022/08/01 01:45:06;;;;;;;6.45;5.55;;;20.20;84.00;;;;;;5097556;28;20028;-75
2022/08/01 01:47:34;;;;;;;8.10;6.15;;;20.20;83.90;;;;;;5080414;28;20032;-75
2022/08/01 01:50:01;;;;;;;6.95;5.55;;;20.20;83.90;;;;;;5080602;28;20016;-75
2022/08/01 01:52:29;;;;;;;6.70;6.00;;;20.20;83.90;;;;;;5098692;28;20448;-74
2022/08/01 01:54:56;;;;;;;6.32;5.57;;;20.20;84.50;;;;;;5098803;28;20032;-74
2022/08/01 01:57:23;;;;;;;6.72;5.43;;;20.20;84.00;;;;;;5098688;28;20023;-74
2022/08/01 01:59:50;;;;;;;7.00;5.57;;;20.20;83.90;;;;;;5098874;28;20052;-75
2022/08/01 02:02:18;;;;;;;7.25;5.80;;;20.20;84.00;;;;;;5080323;28;20047;-74
2022/08/01 02:04:46;;;;;;;8.25;5.38;;;20.20;84.00;;;;;;5080382;28;20479;-75
2022/08/01 02:07:16;;;;;;;7.05;5.60;;;20.20;83.90;;;;;;5098473;28;20113;-75
2022/08/01 02:09:43;;;;;;;6.75;4.97;;;20.20;83.90;;;;;;5097320;28;20046;-74
2022/08/01 02:12:14;;;;;;;6.93;5.05;;;20.20;84.00;;;;;;5098585;28;20038;-74
2022/08/01 02:14:41;;;;;;;5.63;5.00;;;20.20;84.00;;;;;;5080301;28;20020;-74
2022/08/01 02:17:10;;;;;;;6.45;4.97;;;20.20;84.00;;;;;;5098615;28;20032;-74
2022/08/01 02:19:36;;;;;;;7.22;5.03;;;20.20;84.00;;;;;;5098532;28;20032;-75
2022/08/01 02:22:07;;;;;;;8.43;4.90;;;20.20;84.00;;;;;;5098544;28;20028;-75
2022/08/01 02:24:52;;;;;;;7.72;5.35;;;20.20;84.00;;;;;;5079921;28;20044;-74
2022/08/01 02:27:43;;;;;;;6.45;4.65;;;20.20;84.00;;;;;;5080176;28;20027;-75
2022/08/01 02:30:13;;;;;;;7.05;5.10;;;20.20;83.90;;;;;;5071140;28;20561;-75
2022/08/01 02:32:51;;;;;;;5.93;4.72;;;20.20;84.00;;;;;;5098464;28;20024;-75
2022/08/01 02:35:26;;;;;;;7.88;5.55;;;20.20;84.10;;;;;;5098061;28;20074;-74
2022/08/01 02:37:53;;;;;;;8.73;5.25;;;20.20;84.10;;;;;;5096983;28;20482;-75
2022/08/01 02:40:19;;;;;;;7.40;5.03;;;20.20;84.20;;;;;;5098360;28;20031;-74
2022/08/01 02:42:49;;;;;;;6.43;5.15;;;20.10;84.20;;;;;;5097063;28;20028;-74
2022/08/01 02:45:17;;;;;;;7.53;5.25;;;20.10;84.30;;;;;;5094562;28;20487;-74
2022/08/01 02:47:45;;;;;;;6.75;4.90;;;20.10;84.40;;;;;;5095062;28;20042;-74
2022/08/01 02:50:13;;;;;;;7.18;5.15;;;20.10;84.50;;;;;;5093961;28;20074;-75
2022/08/01 02:52:41;;;;;;;6.32;4.45;;;20.10;84.60;;;;;;5093935;28;20493;-74
2022/08/01 02:55:09;;;;;;;6.60;4.60;;;20.10;84.70;;;;;;5095141;28;20028;-74
2022/08/01 02:57:37;;;;;;;6.50;4.40;;;20.10;84.70;;;;;;5093736;28;20429;-74
2022/08/01 03:00:05;;;;;;;5.32;4.13;;;20.10;84.70;;;;;;5076970;28;20128;-73
2022/08/01 03:02:33;;;;;;;5.03;4.13;;;20.10;84.90;;;;;;5076752;28;20196;-74
2022/08/01 03:05:01;;;;;;;5.35;4.22;;;20.00;84.90;;;;;;5076911;28;20483;-74
2022/08/01 03:07:29;;;;;;;6.13;4.40;;;20.00;85.00;;;;;;5095166;28;20034;-74
2022/08/01 03:09:57;;;;;;;4.82;3.97;;;20.00;85.10;;;;;;5093902;28;20505;-74
2022/08/01 03:12:29;;;;;;;5.75;4.50;;;20.00;85.10;;;;;;5095320;28;20475;-75
2022/08/01 03:14:56;;;;;;;6.43;4.82;;;20.00;85.10;;;;;;5095259;28;20040;-74
2022/08/01 03:17:26;;;;;;;6.20;4.68;;;20.00;85.20;;;;;;5077005;28;20032;-74
2022/08/01 03:19:53;;;;;;;4.68;3.90;;;20.00;85.20;;;;;;5093764;28;20028;-74
2022/08/01 03:22:22;;;;;;;4.07;3.08;;;20.00;85.30;;;;;;5095276;28;20032;-75
2022/08/01 03:24:52;;;;;;;2.92;2.60;;;19.90;85.30;;;;;;5095279;28;20020;-74
2022/08/01 03:27:22;;;;;;;2.53;2.30;;;19.90;85.40;;;;;;5094913;28;20043;-74
2022/08/01 03:29:49;;;;;;;2.10;1.90;;;19.90;85.40;;;;;;5094890;28;20479;-74
2022/08/01 03:32:16;;;;;;;2.33;1.70;;;19.90;85.50;;;;;;5094848;28;20024;-74
2022/08/01 03:34:42;;;;;;;1.75;1.60;;;19.90;85.50;;;;;;5076404;28;20036;-74
2022/08/01 03:37:13;;;;;;;2.30;1.70;;;19.80;85.40;;;;;;5094669;28;20034;-75
2022/08/01 03:39:55;;;;;;;2.30;1.90;;;19.80;85.40;;;;;;5094851;28;20139;-74
2022/08/01 03:42:30;;;;;;;1.63;1.50;;;19.80;85.50;;;;;;5093019;28;20024;-74
2022/08/01 03:45:02;;;;;;;2.33;2.00;;;19.80;85.60;;;;;;5093056;28;20119;-74
2022/08/01 03:47:33;;;;;;;2.13;1.80;;;19.80;85.60;;;;;;5094365;28;20019;-74
2022/08/01 03:50:01;;;;;;;2.47;2.20;;;19.80;85.60;;;;;;5094241;28;20024;-74
2022/08/01 03:52:29;;;;;;;2.13;1.92;;;19.80;85.60;;;;;;5094102;28;20051;-74
2022/08/01 03:54:56;;;;;;;2.90;2.40;;;19.80;85.70;;;;;;5094135;28;20488;-75
2022/08/01 03:57:23;;;;;;;2.67;2.38;;;19.70;85.60;;;;;;5093558;28;20032;-74
2022/08/01 03:59:49;;;;;;;2.63;2.20;;;19.70;85.70;;;;;;5094100;28;20115;-74
2022/08/01 04:02:16;;;;;;;2.80;2.50;;;19.70;85.70;;;;;;5092524;28;20028;-74
2022/08/01 04:04:42;;;;;;;2.90;2.40;;;19.70;85.80;;;;;;5094077;28;20032;-73
2022/08/01 04:07:28;;;;;;;2.50;2.30;;;19.70;85.80;;;;;;5075568;28;20443;-74
2022/08/01 04:09:54;;;;;;;2.58;2.38;;;19.70;85.80;;;;;;5094025;28;20031;-74
2022/08/01 04:12:21;;;;;;;3.03;2.22;;;19.70;85.80;;;;;;5093834;28;20416;-74
2022/08/01 04:14:46;;;;;;;2.85;2.40;;;19.60;85.80;;;;;;5093807;28;20032;-74
2022/08/01 04:17:12;;;;;;;3.00;2.25;;;19.70;86.00;;;;;;5093761;28;20020;-74
2022/08/01 04:19:38;;;;;;;2.95;2.65;;;19.60;86.00;;;;;;5093810;28;20547;-74
2022/08/01 04:22:04;;;;;;;3.00;2.70;;;19.60;86.20;;;;;;5075396;28;20072;-74
2022/08/01 04:24:32;;;;;;;2.97;2.38;;;19.60;86.10;;;;;;5075365;28;20141;-74
2022/08/01 04:26:59;;;;;;;3.33;2.60;;;19.60;86.10;;;;;;5093521;28;20032;-74
2022/08/01 04:29:27;;;;;;;3.72;3.10;;;19.60;86.10;;;;;;5075549;28;20039;-74
2022/08/01 04:31:55;;;;;;;3.92;3.10;;;19.60;86.00;;;;;;5075979;28;20114;-75
2022/08/01 04:34:24;;;;;;;4.18;3.30;;;19.60;86.10;;;;;;5092388;28;20119;-74
2022/08/01 04:36:51;;;;;;;3.85;3.45;;;19.60;86.10;;;;;;5092613;28;20032;-74
2022/08/01 04:39:18;;;;;;;4.65;3.53;;;19.60;86.10;;;;;;5093650;28;20039;-75
2022/08/01 04:41:46;;;;;;;4.13;3.40;;;19.60;86.00;;;;;;5092264;28;20035;-74
2022/08/01 04:44:13;;;;;;;3.85;3.42;;;19.70;86.00;;;;;;5075037;28;20039;-74
2022/08/01 04:46:40;;;;;;;3.83;3.35;;;19.70;86.00;;;;;;5093169;28;20502;-74
2022/08/01 04:49:08;;;;;;;3.88;3.35;;;19.70;86.00;;;;;;5092308;28;20024;-74
2022/08/01 04:51:34;;;;;;;4.43;3.35;;;19.70;86.10;;;;;;5093039;28;20030;-74
2022/08/01 04:54:00;;;;;;;4.70;3.30;;;19.70;86.00;;;;;;5093218;28;20535;-73
2022/08/01 04:56:26;;;;;;;4.38;3.75;;;19.70;86.00;;;;;;5093113;28;20051;-74
2022/08/01 04:59:39;;;;;;;5.63;3.42;;;19.70;85.90;;;;;;5093008;28;20039;-74
2022/08/01 05:01:38;;;;;;;3.75;3.45;;;19.80;86.00;;;;;;5092904;28;20040;-74
2022/08/01 05:04:04;;;;;;;4.78;3.40;;;19.90;85.90;;;;;;5092880;28;20032;-74
2022/08/01 05:06:29;;;;;;;3.38;3.03;;;19.90;85.80;;;;;;5074533;28;20507;-74
2022/08/01 05:08:55;;;;;;;4.82;3.35;;;19.90;85.80;;;;;;5092356;28;20110;-74
2022/08/01 05:11:21;;;;;;;5.70;3.35;;;19.90;85.70;;;;;;5092815;28;20065;-74
2022/08/01 05:13:47;;;;;;;4.20;3.50;;;19.90;85.60;;;;;;5092765;28;20020;-74
2022/08/01 05:16:13;;;;;;;4.05;3.03;;;20.00;85.70;;;;;;5091065;28;20077;-74
2022/08/01 05:18:38;;;;;;;3.97;3.15;;;20.00;85.60;;;;;;5074379;28;20506;-74
2022/08/01 05:21:04;;;;;;;3.78;3.45;;;20.00;85.60;;;;;;5092592;28;20441;-75
2022/08/01 05:23:29;;;;;;;4.25;3.50;;;20.00;85.60;;;;;;5092527;28;20054;-74
2022/08/01 05:25:55;;;;;;;3.95;3.55;;;20.00;85.50;;;;;;5092389;28;20054;-74
2022/08/01 05:28:20;;;;;;;4.20;3.75;;;20.00;85.50;;;;;;5092552;28;20028;-74
2022/08/01 05:30:46;;;;;;;4.35;3.60;;;20.00;85.60;;;;;;5092469;28;20028;-74
2022/08/01 05:33:12;;;;;;;3.53;3.22;;;20.00;85.60;;;;;;5074434;28;20051;-74
2022/08/01 05:35:37;;;;;;;4.13;3.33;;;20.00;85.60;;;;;;5092224;28;20229;-74
2022/08/01 05:38:03;;;;;;;3.53;3.20;;;20.10;85.60;;;;;;5092573;28;20028;-73
2022/08/01 05:40:28;;;;;;;3.75;3.28;;;20.10;85.60;;;;;;5092473;28;20475;-74
2022/08/01 05:42:54;;;;;;;4.22;3.22;;;20.10;85.50;;;;;;5092253;28;20036;-75
2022/08/01 05:45:19;;;;;;;4.80;3.60;;;20.00;85.50;;;;;;5074014;28;20055;-74
2022/08/01 05:47:45;;;;;;;3.53;3.15;;;20.10;85.60;;;;;;5073861;28;20031;-74
2022/08/01 05:50:11;;;;;;;3.60;3.13;;;20.10;85.50;;;;;;5091944;28;20016;-74
2022/08/01 05:52:36;;;;;;;3.40;3.10;;;20.10;85.50;;;;;;5092256;28;20024;-74
2022/08/01 05:55:03;;;;;;;3.20;2.90;;;20.20;85.60;;;;;;5073915;28;20029;-74
2022/08/01 05:57:28;;;;;;;3.97;3.00;;;20.20;85.50;;;;;;5091795;28;20032;-74
2022/08/01 05:59:54;;;;;;;3.53;2.60;;;20.20;85.50;;;;;;5073836;28;20485;-74
2022/08/01 06:02:19;;;;;;;2.72;2.20;;;20.30;85.50;;;;;;5073532;28;20056;-74
2022/08/01 06:04:45;;;;;;;2.67;2.08;;;20.30;85.30;;;;;;5074041;28;20383;-74
2022/08/01 06:07:10;;;;;;;3.47;1.90;;;20.30;85.10;;;;;;5073092;28;20032;-74
2022/08/01 06:09:36;;;;;;;1.70;1.60;;;20.30;85.00;;;;;;5073541;28;20086;-74
2022/08/01 06:12:03;;;;;;;1.63;1.52;;;20.30;84.90;;;;;;5073644;28;20020;-75
2022/08/01 06:14:28;;;;;;;2.20;1.80;;;20.30;84.90;;;;;;5092181;28;20387;-75
2022/08/01 06:16:54;;;;;;;1.92;1.65;;;20.30;84.80;;;;;;5091949;28;20032;-75
2022/08/01 06:19:19;;;;;;;1.88;1.50;;;20.40;84.80;;;;;;5093367;28;20111;-74
2022/08/01 06:21:45;;;;;;;1.67;1.40;;;20.40;84.70;;;;;;5095971;28;20367;-75
2022/08/01 06:24:11;;;;;;;1.17;1.13;;;20.40;84.60;;;;;;5095738;28;20483;-74
2022/08/01 06:26:36;;;;;;;2.70;1.40;;;20.30;84.70;;;;;;5096081;28;20040;-75
2022/08/01 06:29:02;;;;;;;1.15;1.05;;;20.30;84.50;;;;;;5095983;28;20051;-75
2022/08/01 06:31:28;;;;;;;2.28;0.80;;;20.20;84.60;;;;;;5077164;28;20031;-75
2022/08/01 06:33:53;;;;;;;2.17;0.80;;;20.20;84.60;;;;;;5077111;28;20044;-74
2022/08/01 06:36:19;;;;;;;0.80;0.80;;;20.20;84.60;;;;;;5095705;28;20068;-75
2022/08/01 06:38:45;;;;;;;2.33;0.80;;;20.20;84.50;;;;;;5096166;28;20027;-74
2022/08/01 06:41:10;;;;;;;1.80;1.00;;;20.30;84.40;;;;;;5095572;28;20440;-74
2022/08/01 06:43:36;;;;;;;0.73;0.73;;;20.30;84.20;;;;;;5077646;28;20495;-74
2022/08/01 06:46:02;;;;;;;1.45;0.77;;;20.30;84.20;;;;;;5077225;28;20031;-75
2022/08/01 06:48:27;;;;;;;1.00;0.68;;;20.30;84.10;;;;;;5077113;28;20480;-75
2022/08/01 06:51:07;;;;;;;1.23;0.80;;;20.40;84.10;;;;;;5095347;28;20036;-75
2022/08/01 06:53:34;;;;;;;0.75;0.60;;;20.40;84.00;;;;;;5095207;28;20099;-75
2022/08/01 06:55:59;;;;;;;0.70;0.70;;;20.50;83.90;;;;;;5094940;28;20602;-75
2022/08/01 06:58:25;;;;;;;0.70;0.70;;;20.50;83.80;;;;;;5076706;28;20070;-74
2022/08/01 07:00:50;;;;;;;0.88;0.60;;;20.60;83.70;;;;;;5076900;28;20142;-74
2022/08/01 07:03:16;;;;;;;2.38;0.95;;;20.60;83.50;;;;;;5094994;28;20028;-74
2022/08/01 07:05:42;;;;;;;4.60;0.95;;;20.70;83.40;;;;;;5076894;28;20043;-74
2022/08/01 07:08:07;;;;;;;3.38;1.30;;;20.70;83.30;;;;;;5076800;28;20024;-75
2022/08/01 07:10:33;;;;;;;0.98;0.80;;;20.70;83.20;;;;;;5092335;28;20040;-75
2022/08/01 07:12:58;;;;;;;2.22;1.00;;;20.70;83.20;;;;;;5076834;28;20571;-74
2022/08/01 07:15:26;;;;;;;4.80;1.30;;;20.80;83.10;;;;;;5094575;28;20035;-73
2022/08/01 07:17:52;;;;;;;3.85;1.10;;;20.80;82.90;;;;;;5095092;28;20040;-73
2022/08/01 07:20:18;;;;;;;1.90;1.10;;;20.80;82.60;;;;;;5094780;28;20488;-74
2022/08/01 07:22:44;;;;;;;2.33;0.98;;;20.80;82.60;;;;;;5076501;28;20341;-76
2022/08/01 07:25:10;;;;;;;1.40;0.90;;;20.80;82.60;;;;;;5076583;28;20028;-76
2022/08/01 07:27:37;;;;;;;1.38;0.82;;;20.80;82.40;;;;;;5094795;28;20071;-75
2022/08/01 07:30:03;;;;;;;0.65;0.65;;;20.80;82.40;;;;;;5094084;28;20065;-75
2022/08/01 07:32:29;;;;;;;0.85;0.70;;;20.80;82.30;;;;;;5094334;28;20107;-77
2022/08/01 07:34:55;;;;;;;1.83;1.00;;;20.80;82.20;;;;;;5076091;28;20103;-76
2022/08/01 07:37:20;;;;;;;1.35;0.80;;;20.80;82.90;;;;;;5076152;28;20126;-77
2022/08/01 07:39:46;;;;;;;1.65;0.70;;;20.70;82.20;;;;;;5076049;28;20177;-75
2022/08/01 07:42:12;;;;;;;0.70;0.70;;;20.70;82.30;;;;;;5073292;28;20047;-76
2022/08/01 07:44:38;;;;;;;0.80;0.70;;;20.70;82.20;;;;;;5094653;28;20177;-76
2022/08/01 07:47:04;;;;;;;1.92;0.90;;;20.70;82.20;;;;;;5075940;28;20032;-76
2022/08/01 07:49:30;;;;;;;0.70;0.70;;;20.80;82.20;;;;;;5094265;28;20035;-77
2022/08/01 07:51:56;;;;;;;0.98;0.82;;;20.80;82.00;;;;;;5094470;28;20020;-75
2022/08/01 07:54:23;;;;;;;1.08;0.73;;;20.90;82.00;;;;;;5094176;28;20105;-76
2022/08/01 07:56:50;;;;;;;2.05;0.90;;;20.90;81.90;;;;;;5075944;28;20024;-75
2022/08/01 07:59:15;;;;;;;1.67;1.10;;;20.90;81.90;;;;;;5074975;28;20039;-76
2022/08/01 08:01:41;;;;;;;1.00;0.90;;;20.90;81.80;;;;;;5091003;28;20089;-76
2022/08/01 08:04:07;;;;;;;1.58;0.93;;;21.00;81.80;;;;;;5075879;28;20027;-75
2022/08/01 08:06:32;;;;;;;1.40;0.82;;;21.00;81.80;;;;;;5093888;28;20031;-75
2022/08/01 08:08:58;;;;;;;1.17;1.00;;;21.00;81.70;;;;;;5075729;28;20024;-75
2022/08/01 08:11:24;;;;;;;1.02;0.80;;;21.00;81.60;;;;;;5075656;28;20024;-76
2022/08/01 08:13:49;;;;;;;2.42;1.00;;;21.10;81.70;;;;;;5094454;28;20023;-76
2022/08/01 08:16:15;;;;;;;1.92;0.90;;;21.10;81.60;;;;;;5093926;28;20020;-77
2022/08/01 08:18:40;;;;;;;1.48;1.15;;;21.10;81.40;;;;;;5075341;28;20035;-75
2022/08/01 08:21:06;;;;;;;1.00;0.90;;;21.10;81.40;;;;;;5075337;28;20032;-75
2022/08/01 08:26:15;;;;;;;1.20;0.90;;;21.20;81.50;;;;;;5093650;28;20043;-76
2022/08/01 08:28:41;;;;;;;1.80;0.90;;;21.20;82.00;;;;;;5093928;28;20028;-76
2022/08/01 08:31:08;;;;;;;1.95;1.20;;;21.30;81.20;;;;;;5093138;28;20032;-76
2022/08/01 08:33:33;;;;;;;2.92;1.08;;;21.30;81.00;;;;;;5075084;28;20019;-76
2022/08/01 08:35:59;;;;;;;1.50;1.00;;;21.40;81.10;;;;;;5093645;28;20035;-75
2022/08/01 08:38:26;;;;;;;0.88;0.88;;;21.40;81.10;;;;;;5093632;28;20056;-76
2022/08/01 08:40:52;;;;;;;1.20;0.90;;;21.50;81.00;;;;;;5074825;28;20024;-75
2022/08/01 08:43:19;;;;;;;1.27;0.93;;;21.60;80.90;;;;;;5073794;28;20442;-76
2022/08/01 08:45:45;;;;;;;1.80;1.10;;;21.60;80.70;;;;;;5093059;28;20074;-76
2022/08/01 08:48:13;;;;;;;1.98;1.08;;;21.80;80.60;;;;;;5089882;28;20040;-76
2022/08/01 08:50:41;;;;;;;1.13;1.02;;;21.80;80.50;;;;;;5092964;28;20028;-76
2022/08/01 08:53:10;;;;;;;1.20;1.00;;;21.90;80.30;;;;;;5090052;28;20492;-76
2022/08/01 08:55:37;;;;;;;2.50;1.20;;;21.90;80.00;;;;;;5091774;28;20130;-76
2022/08/01 08:58:05;;;;;;;2.00;1.10;;;21.90;80.00;;;;;;5074773;28;20047;-76
2022/08/01 09:00:35;;;;;;;1.48;1.17;;;21.80;79.80;;;;;;5092940;28;20024;-76
2022/08/01 09:03:02;;;;;;;1.05;0.90;;;21.80;79.70;;;;;;5092944;28;20104;-76
2022/08/01 09:05:28;;;;;;;1.45;0.95;;;21.70;79.70;;;;;;5089885;28;20039;-76
2022/08/01 09:07:54;;;;;;;1.25;1.08;;;21.60;79.80;;;;;;5074655;28;20036;-76
2022/08/01 09:10:19;;;;;;;1.20;1.08;;;21.50;79.80;;;;;;5071856;28;20443;-76
2022/08/01 09:13:07;;;;;;;1.98;1.10;;;21.30;80.00;;;;;;5074246;28;20035;-75
2022/08/01 09:15:42;;;;;;;1.20;1.10;;;21.20;80.40;;;;;;5074244;28;20017;-75
2022/08/01 09:18:08;;;;;;;2.60;1.25;;;21.10;80.90;;;;;;5074482;28;20094;-77
2022/08/01 09:20:35;;;;;;;2.00;1.20;;;21.00;81.20;;;;;;5092890;28;20028;-77
2022/08/01 09:23:01;;;;;;;1.98;1.23;;;20.80;81.50;;;;;;5092727;28;20052;-76
2022/08/01 09:25:32;;;;;;;1.48;1.30;;;20.70;81.90;;;;;;5091159;28;20032;-74
2022/08/01 09:28:06;;;;;;;1.77;1.27;;;20.60;82.30;;;;;;5074250;28;20487;-76
2022/08/01 09:30:38;;;;;;;1.83;1.13;;;20.50;82.50;;;;;;5091210;28;20028;-76
2022/08/01 09:36:43;;;;;;;1.65;1.50;;;20.50;82.60;;;;;;5086041;28;20453;-76
2022/08/01 09:42:30;;;;;;;4.30;1.55;;;20.60;82.50;;;;;;5092655;28;20253;-76
2022/08/01 09:44:56;;;;;;;1.67;1.42;;;20.50;82.40;;;;;;5074020;28;20036;-76
2022/08/01 09:47:22;;;;;;;2.03;1.52;;;20.50;82.50;;;;;;5092381;28;20027;-76
2022/08/01 09:49:56;;;;;;;2.67;1.58;;;20.40;82.60;;;;;;5092386;28;20024;-75
2022/08/01 09:52:24;;;;;;;3.20;1.90;;;20.40;82.80;;;;;;5090131;28;20035;-75
2022/08/01 09:54:55;;;;;;;3.85;1.60;;;20.40;82.90;;;;;;5076781;28;20101;-75
2022/08/01 09:57:21;;;;;;;3.92;2.03;;;20.30;82.90;;;;;;5094836;28;20027;-76
2022/08/01 09:59:48;;;;;;;3.25;1.77;;;20.30;83.00;;;;;;5096438;28;20020;-76
2022/08/01 10:02:31;;;;;;;2.88;2.25;;;20.30;83.20;;;;;;5078144;28;20520;-76
2022/08/01 10:04:57;;;;;;;3.85;1.92;;;20.30;83.20;;;;;;5096801;28;20516;-75
2022/08/01 10:07:23;;;;;;;3.42;1.80;;;20.30;83.10;;;;;;5095998;28;20383;-75
2022/08/01 10:09:48;;;;;;;3.97;2.00;;;20.50;83.20;;;;;;5096186;28;20028;-76
2022/08/01 10:12:17;;;;;;;3.53;1.83;;;20.60;83.00;;;;;;5077876;28;20032;-76
2022/08/01 10:14:44;;;;;;;4.45;2.20;;;20.80;83.40;;;;;;5096025;28;20034;-76
2022/08/01 10:17:15;;;;;;;3.17;2.28;;;20.90;82.50;;;;;;5095970;28;20028;-76
2022/08/01 10:19:42;;;;;;;3.92;2.08;;;21.00;82.10;;;;;;5094553;28;20020;-76
2022/08/01 10:22:09;;;;;;;3.97;2.08;;;21.00;81.90;;;;;;5095949;28;20032;-76
2022/08/01 10:24:38;;;;;;;4.68;2.08;;;21.00;81.90;;;;;;5094495;28;20531;-76
2022/08/01 10:27:07;;;;;;;6.15;2.03;;;21.00;81.90;;;;;;5094737;28;20035;-76
2022/08/01 10:30:03;;;;;;;4.80;2.20;;;21.10;81.90;;;;;;5095734;28;20492;-75
2022/08/01 10:32:34;;;;;;;4.75;2.00;;;21.10;81.80;;;;;;5093966;28;20421;-76
2022/08/01 10:35:00;;;;;;;4.07;1.90;;;21.20;81.60;;;;;;5095658;28;20067;-76
2022/08/01 10:37:27;;;;;;;4.30;2.20;;;21.30;81.50;;;;;;5095652;28;20060;-77
2022/08/01 10:39:54;;;;;;;4.32;2.13;;;21.40;81.40;;;;;;5094399;28;20561;-76
2022/08/01 10:42:19;;;;;;;4.22;2.35;;;21.30;81.10;;;;;;5094132;28;20336;-76
2022/08/01 10:44:47;;;;;;;5.10;2.50;;;21.30;81.20;;;;;;5095381;28;20032;-76
2022/08/01 10:47:15;;;;;;;5.00;1.85;;;21.30;81.40;;;;;;5095626;28;20483;-76
2022/08/01 10:50:01;;;;;;;4.93;1.90;;;21.30;81.50;;;;;;5095459;28;20036;-75
2022/08/01 10:52:27;;;;;;;3.30;1.95;;;21.30;81.60;;;;;;5095435;28;20503;-76
2022/08/01 10:55:23;;;;;;;4.03;2.10;;;21.30;81.40;;;;;;5076999;28;20021;-76
2022/08/01 10:57:48;;;;;;;6.57;1.92;;;21.30;81.20;;;;;;5060522;28;20036;-76
2022/08/01 11:00:21;;;;;;;4.30;2.17;;;21.40;81.20;;;;;;5076928;28;20028;-75
2022/08/01 11:03:02;;;;;;;7.38;2.03;;;21.40;81.10;;;;;;5077138;28;20406;-76
2022/08/01 11:05:31;;;;;;;4.35;1.90;;;21.50;80.70;;;;;;5092862;28;20039;-76
2022/08/01 11:08:02;;;;;;;5.53;1.90;;;21.60;80.50;;;;;;5093742;28;20120;-76
2022/08/01 11:10:45;;;;;;;4.15;1.60;;;21.80;80.00;;;;;;5076961;28;20012;-75
2022/08/01 11:13:11;;;;;;;2.75;1.65;;;21.90;79.70;;;;;;5095396;28;20117;-75
2022/08/01 11:15:38;;;;;;;3.78;1.83;;;22.10;79.50;;;;;;5093664;28;20137;-74
2022/08/01 11:18:26;;;;;;;3.42;1.65;;;22.30;79.30;;;;;;5093280;28;20483;-75
2022/08/01 11:21:00;;;;;;;2.67;1.50;;;22.40;78.90;;;;;;5063907;28;20040;-75
2022/08/01 11:23:27;;;;;;;3.13;2.10;;;22.40;78.70;;;;;;5076583;28;20479;-76
2022/08/01 11:25:53;;;;;;;4.40;1.95;;;22.50;78.70;;;;;;5093387;28;20557;-77
2022/08/01 11:28:21;;;;;;;2.83;1.58;;;22.50;78.50;;;;;;5094777;28;20024;-76
2022/08/01 11:30:47;;;;;;;5.43;1.73;;;22.60;78.30;;;;;;5094604;28;20046;-76
2022/08/01 11:33:14;;;;;;;4.47;1.80;;;22.60;78.10;;;;;;5093143;28;20495;-75
2022/08/01 11:36:12;;;;;;;5.57;1.70;;;22.50;77.80;;;;;;5076074;28;20044;-75
2022/08/01 11:38:39;;;;;;;5.63;1.80;;;22.50;77.40;;;;;;5088776;28;20044;-76
2022/08/01 11:41:11;;;;;;;2.85;1.30;;;22.60;77.50;;;;;;5093173;28;20553;-75
2022/08/01 11:44:05;;;;;;;8.00;2.10;;;22.70;77.20;;;;;;5076008;28;20065;-75
2022/08/01 11:47:06;;;;;;;5.90;1.70;;;22.90;77.00;;;;;;5092919;28;20032;-75
2022/08/01 11:49:50;;;;;;;4.68;1.80;;;23.00;76.80;;;;;;5092691;28;20419;-77
2022/08/01 11:52:17;;;;;;;3.85;1.70;;;23.10;76.80;;;;;;5094426;28;20027;-76
2022/08/01 11:54:52;;;;;;;3.35;1.58;;;23.20;76.60;;;;;;5092589;28;20119;-75
2022/08/01 11:57:22;;;;;;;5.40;1.67;;;23.30;76.30;;;;;;5093931;28;20021;-76
2022/08/01 11:59:53;;;;;;;4.13;1.55;;;23.30;75.80;;;;;;5092464;28;20034;-76
2022/08/01 12:02:23;;;;;;;2.70;1.50;;;23.50;75.30;;;;;;5094108;28;20039;-76
2022/08/01 12:04:57;;;;;;;2.40;1.48;;;23.50;74.90;;;;;;5092535;28;20028;-75
2022/08/01 12:07:24;;;;;;;6.15;1.60;;;23.60;74.70;;;;;;5092419;28;20020;-76
2022/08/01 12:10:00;;;;;;;4.72;1.73;;;23.50;74.50;;;;;;5093799;28;20480;-77
2022/08/01 12:12:26;;;;;;;4.28;1.50;;;23.50;74.00;;;;;;5093821;28;20016;-76
2022/08/01 12:14:57;;;;;;;5.13;1.40;;;23.50;74.00;;;;;;5093721;28;20365;-77
2022/08/01 12:17:31;;;;;;;4.00;1.30;;;23.50;73.60;;;;;;5091930;28;20032;-76
2022/08/01 12:19:57;;;;;;;4.35;1.50;;;23.50;73.10;;;;;;5093509;28;20423;-77
2022/08/01 12:22:24;;;;;;;2.47;1.98;;;23.50;73.00;;;;;;5075171;28;20024;-76
2022/08/01 12:24:51;;;;;;;3.83;1.63;;;23.60;72.90;;;;;;5093523;28;20024;-76
2022/08/01 12:27:30;;;;;;;2.38;1.50;;;23.60;72.60;;;;;;5093214;28;20074;-76
2022/08/01 12:29:57;;;;;;;3.83;1.40;;;23.60;72.20;;;;;;5091940;28;20546;-76
2022/08/01 12:32:36;;;;;;;3.70;1.48;;;23.60;71.90;;;;;;5075208;28;20028;-76
2022/08/01 12:35:13;;;;;;;4.07;1.33;;;23.60;71.20;;;;;;5093229;28;20173;-76
2022/08/01 12:37:46;;;;;;;2.20;1.17;;;23.50;71.10;;;;;;5091875;28;20028;-76
2022/08/01 12:40:18;;;;;;;2.47;1.05;;;23.40;70.90;;;;;;5091669;28;20024;-77
2022/08/01 12:42:46;;;;;;;4.40;1.40;;;23.40;70.70;;;;;;5074817;28;20036;-77
2022/08/01 12:45:15;;;;;;;4.13;1.48;;;23.40;70.50;;;;;;5090057;28;20551;-76
2022/08/01 12:47:42;;;;;;;2.67;1.33;;;23.40;70.00;;;;;;5093520;28;20027;-76
2022/08/01 12:51:03;;;;;;;3.00;1.30;;;23.40;69.70;;;;;;5093846;28;20020;-76
2022/08/01 12:53:34;;;;;;;2.65;1.25;;;23.30;69.00;;;;;;5092709;28;20028;-77
2022/08/01 12:56:00;;;;;;;3.00;1.30;;;23.20;69.10;;;;;;5093005;28;20024;-77
2022/08/01 12:58:33;;;;;;;3.55;1.67;;;23.10;68.50;;;;;;5074753;28;20472;-76
2022/08/01 13:01:04;;;;;;;2.13;1.17;;;22.90;68.60;;;;;;5070734;28;20550;-76
2022/08/01 13:03:30;;;;;;;4.10;1.50;;;22.90;68.60;;;;;;5053729;28;20042;-76
2022/08/01 13:05:58;;;;;;;5.43;1.45;;;22.80;68.60;;;;;;5053698;28;20041;-77